Time;durP1;ratioP1;P1;durP2;ratioP2;P2;SDS_P1;SDS_P2;PMS_P1;PMS_P2;Temp;Humidity;BMP_temperature;BMP_pressure;BME280_temperature;BME280_humidity;BME280_pressure;Samples;Min_cycle;Max_cycle;Signal;HPM_P1;HPM_P2
2023/08/07 00:00:39;;;;;;;4.40;3.80;;;;;;;13.97;93.21;97555.71;226189;1280;22541;-78
2023/08/07 00:05:56;;;;;;;4.10;3.80;;;;;;;13.96;93.45;97557.35;226135;1279;22520;-80
2023/08/07 00:11:32;;;;;;;;;;;;;;;13.94;93.37;97557.33;226074;1277;22527;-79
2023/08/07 00:16:55;;;;;;;5.90;4.20;;;;;;;13.91;93.21;97554.56;226122;1280;25940;-79
2023/08/07 00:22:00;;;;;;;4.60;4.10;;;;;;;13.90;93.49;97550.14;226157;1278;22647;-79
2023/08/07 00:27:23;;;;;;;4.70;4.30;;;;;;;13.89;93.54;97551.41;225902;1279;22544;-79
2023/08/07 00:32:47;;;;;;;5.30;4.50;;;;;;;13.92;93.41;97550.13;226166;1276;22541;-79
2023/08/07 00:38:00;;;;;;;6.00;4.40;;;;;;;13.94;93.59;97552.94;226153;1280;25053;-79
2023/08/07 00:43:23;;;;;;;4.90;4.40;;;;;;;13.93;93.33;97554.07;226153;1279;22545;-80
2023/08/07 00:48:53;;;;;;;4.90;4.40;;;;;;;13.92;93.41;97552.32;226151;1280;22528;-80
2023/08/07 00:53:58;;;;;;;5.30;4.70;;;;;;;13.94;93.58;97543.46;226162;1256;22540;-80
2023/08/07 00:59:10;;;;;;;5.30;4.90;;;;;;;13.96;93.57;97541.63;226152;1279;22504;-80
2023/08/07 01:04:51;;;;;;;4.60;4.20;;;;;;;13.97;93.45;97543.30;226041;1279;25405;-79
2023/08/07 01:10:16;;;;;;;6.20;4.80;;;;;;;13.96;93.29;97545.40;226153;1280;22591;-80
2023/08/07 01:16:35;;;;;;;;;;;;;;;;;;;;;
2023/08/07 01:21:48;;;;;;;5.10;4.60;;;;;;;13.95;93.63;97549.27;226021;1279;22536;-80
2023/08/07 01:27:43;;;;;;;6.00;4.80;;;;;;;13.96;93.73;97550.08;226086;1280;22497;-79
2023/08/07 01:33:55;;;;;;;5.60;4.90;;;;;;;13.97;93.65;97552.27;226284;1280;22567;-80
2023/08/07 01:39:28;;;;;;;7.60;5.70;;;;;;;13.99;93.48;97549.70;226168;1279;22533;-80
2023/08/07 01:44:52;;;;;;;;;;;;;;;;;;;;;
2023/08/07 01:50:34;;;;;;;6.60;5.90;;;;;;;14.00;93.62;97556.46;226090;1280;22537;-79
2023/08/07 01:56:22;;;;;;;;;;;;;;;;;;;;;
2023/08/07 02:01:35;;;;;;;7.80;6.70;;;;;;;14.00;93.58;97561.25;226137;1280;22529;-80
2023/08/07 02:06:43;;;;;;;7.30;6.70;;;;;;;14.02;93.74;97556.50;226077;1279;22559;-80
2023/08/07 02:12:08;;;;;;;;;;;;;;;;;;;;;
2023/08/07 02:18:08;;;;;;;;;;;;;;;;;;;;;
2023/08/07 02:23:23;;;;;;;7.00;6.20;;;;;;;14.02;93.62;97557.61;226202;1276;22533;-79
2023/08/07 02:28:49;;;;;;;7.00;6.30;;;;;;;13.96;93.91;97556.50;226256;1275;22533;-79
2023/08/07 02:34:35;;;;;;;7.70;6.30;;;;;;;13.94;93.87;97555.63;226146;1279;22557;-78
2023/08/07 02:39:56;;;;;;;7.20;6.50;;;;;;;13.90;93.92;97551.52;225896;1279;25237;-79
2023/08/07 02:45:51;;;;;;;13.10;11.90;;;;;;;13.90;94.21;97552.91;226170;1279;22523;-79
2023/08/07 02:51:45;;;;;;;11.00;10.00;;;;;;;13.92;94.30;97551.88;226252;1279;22537;-80
2023/08/07 02:57:04;;;;;;;9.60;8.70;;;;;;;13.92;94.44;97555.12;226157;1274;22552;-80
2023/08/07 03:02:25;;;;;;;;;;;;;;;;;;;;;
2023/08/07 03:08:07;;;;;;;;;;;;;;;;;;;;;
2023/08/07 03:13:35;;;;;;;;;;;;;;;13.95;94.55;97568.51;226201;1279;22525;-78
2023/08/07 03:19:16;;;;;;;6.10;5.50;;;;;;;13.92;94.24;97566.96;226156;1279;22547;-78
2023/08/07 03:24:27;;;;;;;6.60;6.10;;;;;;;13.92;94.64;97571.73;226230;1276;22558;-77
2023/08/07 03:30:21;;;;;;;6.50;5.80;;;;;;;13.92;94.59;97573.44;226075;1280;22694;-79
2023/08/07 03:35:53;;;;;;;;;;;;;;;;;;;;;
2023/08/07 03:41:58;;;;;;;6.40;5.90;;;;;;;13.99;94.95;97589.59;226109;1279;25404;-78
2023/08/07 03:53:53;;;;;;;6.30;5.40;;;;;;;14.00;94.55;97590.20;226089;1280;22576;-77
2023/08/07 03:59:45;;;;;;;;;;;;;;;;;;;;;
2023/08/07 04:05:16;;;;;;;4.80;4.40;;;;;;;14.01;94.78;97596.07;226105;1280;22541;-78
2023/08/07 04:11:22;;;;;;;6.30;4.70;;;;;;;14.02;94.72;97596.66;226152;1279;22531;-78
2023/08/07 04:17:05;;;;;;;5.40;3.80;;;;;;;14.05;94.88;97597.46;226004;1279;23273;-78
2023/08/07 04:23:08;;;;;;;;;;;;;;;;;;;;;
2023/08/07 04:28:19;;;;;;;3.20;3.00;;;;;;;14.09;94.85;97602.64;226037;1280;22545;-77
2023/08/07 04:34:04;;;;;;;2.50;2.30;;;;;;;14.11;95.01;97601.55;226184;1274;25381;-78
2023/08/07 04:39:38;;;;;;;2.60;2.00;;;;;;;14.11;94.58;97598.78;226182;1279;22542;-78
2023/08/07 04:45:39;;;;;;;;;;;;;;;;;;;;;
2023/08/07 04:51:35;;;;;;;1.20;1.10;;;;;;;14.12;94.35;97603.37;226105;1279;22557;-78
2023/08/07 04:56:50;;;;;;;1.00;1.00;;;;;;;14.15;94.20;97603.10;226122;1279;22540;-78
2023/08/07 05:02:53;;;;;;;;;;;;;;;;;;;;;
2023/08/07 05:09:06;;;;;;;;;;;;;;;;;;;;;
2023/08/07 05:14:58;;;;;;;1.70;0.50;;;;;;;14.30;94.01;97610.36;226055;1279;22477;-79
2023/08/07 05:20:30;;;;;;;;;;;;;;;;;;;;;
2023/08/07 05:25:40;;;;;;;0.60;0.60;;;;;;;14.44;93.64;97614.02;226119;1277;24287;-78
2023/08/07 05:30:46;;;;;;;0.70;0.70;;;;;;;14.53;93.59;97621.05;226062;1277;22576;-79
2023/08/07 05:36:15;;;;;;;0.60;0.50;;;;;;;14.65;93.67;97615.65;226023;1279;22564;-77
2023/08/07 05:41:50;;;;;;;0.60;0.50;;;;;;;14.76;93.15;97618.10;226097;1264;23547;-79
2023/08/07 05:47:13;;;;;;;1.60;1.00;;;;;;;14.84;93.00;97624.33;225691;1274;22651;-79
2023/08/07 05:52:21;;;;;;;4.70;2.50;;;;;;;14.88;93.02;97628.59;225879;1273;22536;-78
2023/08/07 05:57:23;;;;;;;2.40;0.90;;;;;;;14.89;92.71;97628.77;225769;1258;22556;-77
2023/08/07 06:02:31;;;;;;;2.20;1.60;;;;;;;14.89;92.49;97629.67;225707;1276;22559;-77
2023/08/07 06:07:36;;;;;;;0.90;0.70;;;;;;;14.93;92.87;97635.69;225672;1273;22538;-79
2023/08/07 06:12:47;;;;;;;1.50;0.50;;;;;;;14.98;92.37;97647.47;225093;1265;22548;-76
2023/08/07 06:18:09;;;;;;;0.80;0.60;;;;;;;14.98;92.16;97654.60;225021;1276;22976;-77
2023/08/07 06:23:33;;;;;;;0.30;0.30;;;;;;;15.05;92.37;97654.23;225147;1257;22555;-77
2023/08/07 06:28:55;;;;;;;0.40;0.40;;;;;;;15.11;91.90;97657.89;225390;1272;22537;-76
2023/08/07 06:34:09;;;;;;;1.20;0.20;;;;;;;15.09;91.49;97659.03;225219;1273;24220;-77
2023/08/07 06:39:35;;;;;;;0.30;0.30;;;;;;;14.97;91.44;97659.48;225763;1275;23780;-77
2023/08/07 06:44:38;;;;;;;1.60;0.20;;;;;;;14.88;91.60;97663.38;225745;1276;22537;-76
2023/08/07 06:50:24;;;;;;;1.00;0.30;;;;;;;14.86;91.66;97661.75;225498;1273;25617;-76
2023/08/07 06:55:34;;;;;;;0.30;0.10;;;;;;;14.82;91.37;97664.15;225728;1277;22640;-76
2023/08/07 07:00:47;;;;;;;0.20;0.20;;;;;;;14.83;91.74;97670.92;225543;1256;23262;-76
2023/08/07 07:05:59;;;;;;;6.10;4.80;;;;;;;14.86;91.58;97673.50;225713;1265;25108;-77
2023/08/07 07:11:04;;;;;;;0.80;0.40;;;;;;;14.87;91.79;97680.80;225410;1264;22541;-78
2023/08/07 07:16:42;;;;;;;0.30;0.30;;;;;;;14.85;91.48;97680.71;225661;1279;24403;-78
2023/08/07 07:22:05;;;;;;;0.30;0.30;;;;;;;14.76;91.28;97689.45;225595;1257;22551;-78
2023/08/07 07:27:41;;;;;;;1.10;0.30;;;;;;;14.75;91.70;97697.43;225651;1279;22540;-78
2023/08/07 07:32:49;;;;;;;0.30;0.30;;;;;;;14.84;91.74;97702.20;225709;1276;22567;-78
2023/08/07 07:38:04;;;;;;;0.30;0.30;;;;;;;14.89;91.81;97706.20;225680;1278;22688;-82
2023/08/07 07:43:31;;;;;;;;;;;;;;;;;;;;;
2023/08/07 07:49:06;;;;;;;0.60;0.50;;;;;;;14.96;91.56;97717.56;225635;1264;22554;-78
2023/08/07 07:54:11;;;;;;;0.30;0.30;;;;;;;15.01;91.58;97717.93;225647;1276;22567;-78
2023/08/07 07:59:37;;;;;;;0.40;0.40;;;;;;;15.03;91.80;97722.83;225646;1279;24221;-79
2023/08/07 08:05:38;;;;;;;;;;;;;;;;;;;;;
2023/08/07 08:10:58;;;;;;;0.50;0.50;;;;;;;15.17;91.22;97731.39;225408;1272;25351;-78
2023/08/07 08:16:28;;;;;;;1.00;0.60;;;;;;;15.27;91.52;97737.60;225678;1273;22552;-78
2023/08/07 08:21:49;;;;;;;1.20;0.60;;;;;;;15.40;91.68;97741.89;225669;1278;22520;-79
2023/08/07 08:26:57;;;;;;;0.40;0.40;;;;;;;15.54;91.61;97745.79;225690;1272;22533;-77
2023/08/07 08:33:01;;;;;;;0.40;0.40;;;;;;;15.69;91.26;97754.70;225536;1272;24370;-78
2023/08/07 08:38:16;;;;;;;0.70;0.60;;;;;;;15.88;91.49;97754.64;225655;1260;23092;-78
2023/08/07 08:43:32;;;;;;;1.00;0.50;;;;;;;16.05;90.73;97760.00;225779;1279;22546;-79
2023/08/07 08:49:39;;;;;;;;;;;;;;;;;;;;;
2023/08/07 08:55:12;;;;;;;0.70;0.60;;;;;;;16.23;90.33;97767.95;225776;1260;22556;-78
2023/08/07 09:00:42;;;;;;;1.30;0.80;;;;;;;16.20;89.83;97767.64;225623;1265;22547;-78
2023/08/07 09:05:46;;;;;;;;;;;;;;;16.19;90.04;97778.15;225568;1280;22514;-81
2023/08/07 09:11:02;;;;;;;0.60;0.50;;;;;;;16.21;89.65;97775.60;225652;1280;22536;-79
2023/08/07 09:16:28;;;;;;;0.70;0.70;;;;;;;16.21;89.85;97781.45;225634;1272;22656;-80
2023/08/07 09:22:36;;;;;;;;;;;;;;;;;;;;;
2023/08/07 09:27:49;;;;;;;1.90;1.70;;;;;;;16.41;89.89;97790.87;225609;1272;22608;-80
2023/08/07 09:32:54;;;;;;;0.80;0.60;;;;;;;16.44;89.47;97791.81;225590;1279;22526;-80
2023/08/07 09:38:07;;;;;;;0.60;0.60;;;;;;;16.50;89.54;97788.36;225489;1264;22562;-81
2023/08/07 09:43:21;;;;;;;0.90;0.80;;;;;;;16.61;89.30;97796.97;225735;1279;22556;-81
2023/08/07 09:48:40;;;;;;;0.60;0.60;;;;;;;16.76;89.12;97800.08;225719;1275;22644;-81
2023/08/07 09:53:42;;;;;;;0.60;0.60;;;;;;;16.75;88.75;97803.77;225726;1279;22498;-81
2023/08/07 09:58:48;;;;;;;1.60;1.20;;;;;;;16.74;89.00;97815.38;225618;1274;22529;-81
2023/08/07 10:03:52;;;;;;;1.90;1.40;;;;;;;16.60;88.14;97841.02;225802;1278;22547;-81
2023/08/07 10:08:55;;;;;;;4.40;2.10;;;;;;;16.17;87.43;97851.20;225651;1279;22593;-80
2023/08/07 10:14:01;;;;;;;2.10;1.50;;;;;;;15.61;87.46;97868.13;225506;1280;23693;-80
2023/08/07 10:19:03;;;;;;;1.70;1.40;;;;;;;15.15;88.13;97873.45;225474;1263;22562;-79
2023/08/07 10:24:07;;;;;;;2.70;2.00;;;;;;;14.87;88.49;97872.67;225587;1272;22608;-79
2023/08/07 10:29:13;;;;;;;2.00;1.70;;;;;;;14.68;88.78;97879.65;225565;1275;23253;-80
2023/08/07 10:34:15;;;;;;;1.90;1.50;;;;;;;14.56;89.34;97879.73;225521;1263;22541;-80
2023/08/07 10:39:18;;;;;;;2.50;1.90;;;;;;;14.49;89.78;97877.79;225492;1277;22546;-78
2023/08/07 10:44:25;;;;;;;1.90;1.70;;;;;;;14.55;90.36;97879.13;225560;1258;22552;-76
2023/08/07 10:49:39;;;;;;;1.70;1.50;;;;;;;14.72;90.41;97880.00;225473;1259;130327;-80
2023/08/07 10:54:47;;;;;;;1.50;1.40;;;;;;;14.92;90.36;97877.29;225487;1275;22737;-79
2023/08/07 10:59:50;;;;;;;3.50;1.80;;;;;;;15.12;90.15;97882.83;225376;1269;22636;-79
2023/08/07 11:04:53;;;;;;;2.70;1.90;;;;;;;15.34;90.27;97884.27;225559;1269;22536;-80
2023/08/07 11:09:58;;;;;;;2.00;1.90;;;;;;;15.50;89.76;97882.03;225598;1277;25281;-79
2023/08/07 11:15:00;;;;;;;2.80;2.30;;;;;;;15.64;89.88;97889.58;225602;1256;22713;-80
2023/08/07 11:20:06;;;;;;;2.90;1.90;;;;;;;15.74;89.52;97883.45;225621;1280;22521;-80
2023/08/07 11:25:54;;;;;;;2.60;1.90;;;;;;;15.86;89.13;97884.61;225472;1261;22541;-79
2023/08/07 11:30:57;;;;;;;2.90;2.20;;;;;;;16.06;89.47;97884.41;225656;1259;22547;-79
2023/08/07 11:36:34;;;;;;;;;;;;;;;;;;;;;
2023/08/07 11:42:13;;;;;;;1.90;1.80;;;;;;;16.57;88.48;97902.37;225808;1265;22547;-79
2023/08/07 11:47:31;;;;;;;2.80;2.10;;;;;;;16.79;87.95;97910.55;225630;1274;22558;-81
2023/08/07 11:52:41;;;;;;;3.80;2.00;;;;;;;17.06;87.78;97908.03;225450;1276;22626;-80
2023/08/07 11:57:47;;;;;;;2.70;1.90;;;;;;;17.39;87.93;97912.48;225396;1265;25253;-80
2023/08/07 12:03:44;;;;;;;3.40;2.10;;;;;;;17.63;86.50;97917.73;225655;1265;22527;-74
2023/08/07 12:09:00;;;;;;;4.70;2.60;;;;;;;17.74;86.06;97915.69;225565;1261;25216;-75
2023/08/07 12:14:13;;;;;;;2.30;2.10;;;;;;;17.95;85.77;97925.05;225842;1272;22589;-74
2023/08/07 12:19:26;;;;;;;4.40;2.60;;;;;;;18.17;84.99;97925.59;225516;1277;24219;-74
2023/08/07 12:24:40;;;;;;;3.20;2.30;;;;;;;18.11;83.33;97928.75;225570;1257;22532;-74
2023/08/07 12:29:51;;;;;;;3.10;2.20;;;;;;;18.30;84.76;97934.98;225620;1277;25223;-74
2023/08/07 12:35:31;;;;;;;;;;;;;;;;;;;;;
2023/08/07 12:40:47;;;;;;;2.80;1.80;;;;;;;19.02;83.61;97949.05;225798;1278;27114;-74
2023/08/07 12:46:37;;;;;;;3.40;1.80;;;;;;;19.13;82.62;97956.54;225412;1280;22551;-74
2023/08/07 12:52:41;;;;;;;1.80;1.70;;;;;;;19.20;81.74;97957.61;225509;1275;22546;-75
2023/08/07 12:58:29;;;;;;;;;;;;;;;;;;;;;
2023/08/07 13:03:54;;;;;;;3.30;2.60;;;;;;;19.18;80.71;97974.53;225680;1268;22527;-73
2023/08/07 13:09:32;;;;;;;;;;;;;;;;;;;;;
2023/08/07 13:15:25;;;;;;;2.80;1.70;;;;;;;18.98;80.40;97984.80;225311;1263;22554;-74
2023/08/07 13:21:00;;;;;;;2.50;1.70;;;;;;;18.77;80.07;97978.54;225335;1266;22561;-74
2023/08/07 13:26:25;;;;;;;;;;;;;;;;;;;;;
2023/08/07 13:31:37;;;;;;;2.40;2.10;;;;;;;18.64;80.17;97979.92;225387;1260;26076;-75
2023/08/07 13:37:13;;;;;;;5.70;2.30;;;;;;;18.38;80.08;97977.39;225583;1278;22566;-76
2023/08/07 13:43:09;;;;;;;;;;;;;;;;;;;;;
2023/08/07 13:48:37;;;;;;;2.50;2.20;;;;;;;18.14;81.64;97986.95;225534;1275;22607;-74
2023/08/07 14:00:02;;;;;;;4.50;2.50;;;;;;;18.40;81.10;97995.85;225618;1280;22539;-73
2023/08/07 14:05:28;;;;;;;3.20;2.80;;;;;;;18.73;81.72;97990.51;225408;1278;22530;-72
2023/08/07 14:10:33;;;;;;;3.50;2.20;;;;;;;19.30;81.52;97999.05;225059;1283;22732;-72
2023/08/07 14:15:38;;;;;;;4.90;2.30;;;;;;;19.53;79.72;98008.20;224953;1283;25266;-73
2023/08/07 14:20:40;;;;;;;3.60;2.20;;;;;;;19.69;79.31;98005.67;225145;1280;22758;-73
2023/08/07 14:26:05;;;;;;;3.20;2.30;;;;;;;19.62;78.53;98010.74;225292;1281;22570;-72
2023/08/07 14:31:09;;;;;;;2.30;2.10;;;;;;;19.27;78.13;98014.52;225359;1283;22550;-72
2023/08/07 14:36:30;;;;;;;4.20;2.40;;;;;;;18.69;78.38;98021.20;225346;1283;23922;-72
2023/08/07 14:41:51;;;;;;;2.20;2.00;;;;;;;18.13;79.18;98018.70;225956;1280;22530;-72
2023/08/07 14:46:54;;;;;;;3.40;2.10;;;;;;;17.68;80.59;98025.02;226197;1257;22568;-72
2023/08/07 14:52:45;;;;;;;2.50;1.90;;;;;;;17.26;81.05;98040.39;226180;1280;22544;-73
2023/08/07 14:57:51;;;;;;;3.60;2.00;;;;;;;16.80;83.55;98052.44;225922;1280;22552;-70
2023/08/07 15:03:22;;;;;;;2.50;2.10;;;;;;;16.18;86.46;98044.13;225893;1275;24897;-70
2023/08/07 15:08:47;;;;;;;2.80;2.20;;;;;;;15.82;86.83;98047.78;225111;1286;22657;-72
2023/08/07 15:13:52;;;;;;;3.20;2.10;;;;;;;15.83;87.12;98044.34;225172;1284;22558;-71
2023/08/07 15:19:17;;;;;;;2.20;1.90;;;;;;;16.06;87.16;98050.58;225096;1286;22560;-72
2023/08/07 15:24:40;;;;;;;3.40;2.20;;;;;;;16.49;87.36;98052.50;225332;1280;22543;-71
2023/08/07 15:29:47;;;;;;;3.40;2.40;;;;;;;16.99;87.09;98050.80;226186;1258;22556;-73
2023/08/07 15:34:49;;;;;;;2.40;1.90;;;;;;;17.29;86.07;98050.04;225686;1280;22543;-72
2023/08/07 15:39:58;;;;;;;2.60;2.00;;;;;;;17.32;85.58;98057.62;225838;1278;22555;-71
2023/08/07 15:45:44;;;;;;;;;;;;;;;17.20;85.52;98071.52;225828;1280;23002;-72
2023/08/07 15:51:08;;;;;;;2.60;1.80;;;;;;;17.27;85.93;98075.18;226001;1280;25149;-71
2023/08/07 15:56:27;;;;;;;2.00;1.80;;;;;;;17.54;86.25;98080.21;225796;1280;22647;-71
2023/08/07 16:02:06;;;;;;;;;;;;;;;;;;;;;
2023/08/07 16:07:49;;;;;;;2.80;2.10;;;;;;;17.51;85.26;98087.75;226119;1280;22532;-71
2023/08/07 16:13:18;;;;;;;2.70;1.90;;;;;;;17.32;85.17;98093.17;225479;1281;22500;-72
2023/08/07 16:19:14;;;;;;;2.10;1.90;;;;;;;17.09;85.27;98088.55;225158;1286;22553;-72
2023/08/07 16:25:25;;;;;;;2.40;2.00;;;;;;;16.98;85.29;98099.19;225002;1286;22562;-72
2023/08/07 16:31:00;;;;;;;2.30;2.10;;;;;;;16.88;85.02;98104.98;224701;1290;22545;-71
2023/08/07 16:36:14;;;;;;;2.40;2.20;;;;;;;16.76;85.24;98120.53;224641;1290;22537;-72
2023/08/07 16:41:36;;;;;;;2.40;2.10;;;;;;;16.62;85.10;98127.30;224635;1287;23154;-71
2023/08/07 16:46:41;;;;;;;1.90;1.80;;;;;;;16.53;85.35;98122.55;224956;1284;22563;-71
2023/08/07 16:52:05;;;;;;;1.90;1.80;;;;;;;16.32;85.43;98118.73;225205;1280;23000;-71
2023/08/07 16:57:18;;;;;;;2.50;1.90;;;;;;;16.15;85.64;98126.48;226021;1278;22531;-70
2023/08/07 17:03:14;;;;;;;2.00;1.80;;;;;;;16.10;86.31;98129.27;225940;1280;22536;-71
2023/08/07 17:09:03;;;;;;;4.00;2.50;;;;;;;16.25;86.83;98130.30;225819;1280;22537;-71
2023/08/07 17:15:18;;;;;;;3.50;2.50;;;;;;;16.40;87.16;98134.43;226053;1280;24369;-72
2023/08/07 17:20:54;;;;;;;3.20;2.90;;;;;;;16.46;87.74;98135.23;225889;1280;22615;-71
2023/08/07 17:26:36;;;;;;;4.10;3.00;;;;;;;16.46;88.08;98136.21;226158;1280;25407;-72
2023/08/07 17:31:42;;;;;;;3.30;3.00;;;;;;;16.46;88.23;98145.81;226145;1280;22545;-70
2023/08/07 17:37:27;;;;;;;3.40;2.60;;;;;;;16.44;88.04;98149.98;225981;1280;22568;-71
2023/08/07 20:50:00;;;;;;;1.30;1.00;;;;;;;14.25;89.44;98325.66;179660;1285;22945;31
2023/08/07 21:53:39;;;;;;;1.80;0.80;;;;;;;14.11;89.47;98366.55;179454;1290;22730;31
2023/08/07 22:25:17;;;;;;;2.70;0.70;;;;;;;14.07;89.74;98409.19;179432;1285;23036;31
2023/08/07 22:56:41;;;;;;;1.80;0.60;;;;;;;13.95;89.65;98434.86;179422;1285;22702;31
